PWSweather.com
Personal Weather Stations
Station Observations
133525
French Quarters West Seneca , West Seneca, NY 14224

French Quarters West Seneca West Seneca, NY 14224

Lat: 42.850058, Lon: -78.799754

Elevation: 603

Station Type: Davis Vantage Vue pro2

http://westsenecaweather.com/

High Low Average
Temperature 62.4°F16.9°C 27.0°F-2.8°C 47.8°F8.8°C
Dew Point 32.7°F0.4°C 19.3°F-7.1°C 24.2°F-4.3°C
Winds 8.1 mph 13.0 kmh Calm Calm 2.0 mph SW3.2 kmh SW
Wind Gusts 11.5 mph18.5 kmh -- 3.0 mph4.8 kmh
Humidity 91% 21% 47%
Pressure 30.46 in1031.5 mb 30.35 in1027.8 mb -
Precipitation 0.00 in0.0 mm - -
Hour Temp Dew Point Humidity Winds Wind Gusts Pressure Precip Precip Rate Daily Precip Total
12:00 AM 33.4°F0.8°C 28.2°F-2.1°C 81% Calm Calm -- 30.42 in1030.1 mb - 0.00 in0.0 mm 0.00 in0.0 mm
12:10 AM 32.9°F0.5°C 28.0°F-2.2°C 82% Calm Calm -- 30.42 in1030.1 mb - 0.00 in0.0 mm 0.00 in0.0 mm
12:20 AM 32.7°F0.4°C 28.1°F-2.2°C 83% Calm Calm -- 30.42 in1030.1 mb - 0.00 in0.0 mm 0.00 in0.0 mm
12:30 AM 32.4°F0.2°C 27.8°F-2.3°C 83% Calm Calm -- 30.42 in1030.1 mb - 0.00 in0.0 mm 0.00 in0.0 mm
12:40 AM 32.1°F0.1°C 27.8°F-2.3°C 84% Calm Calm -- 30.43 in1030.5 mb - 0.00 in0.0 mm 0.00 in0.0 mm
12:50 AM 32.0°F0.0°C 28.0°F-2.2°C 85% Calm Calm -- 30.42 in1030.1 mb - 0.00 in0.0 mm 0.00 in0.0 mm
01:00 AM 32.0°F0.0°C 28.0°F-2.2°C 85% Calm Calm -- 30.43 in1030.5 mb - 0.00 in0.0 mm 0.00 in0.0 mm
01:10 AM 31.6°F-0.2°C 27.6°F-2.4°C 85% Calm Calm -- 30.43 in1030.5 mb - 0.00 in0.0 mm 0.00 in0.0 mm
01:20 AM 31.4°F-0.3°C 27.4°F-2.6°C 85% Calm Calm -- 30.43 in1030.5 mb - 0.00 in0.0 mm 0.00 in0.0 mm
01:30 AM 31.2°F-0.4°C 27.2°F-2.7°C 85% Calm Calm -- 30.43 in1030.5 mb - 0.00 in0.0 mm 0.00 in0.0 mm
01:40 AM 31.0°F-0.6°C 27.3°F-2.6°C 86% Calm Calm -- 30.43 in1030.5 mb - 0.00 in0.0 mm 0.00 in0.0 mm
01:50 AM 30.7°F-0.7°C 27.0°F-2.8°C 86% Calm Calm -- 30.42 in1030.1 mb - 0.00 in0.0 mm 0.00 in0.0 mm
02:00 AM 30.7°F-0.7°C 27.3°F-2.6°C 87% Calm Calm -- 30.43 in1030.5 mb - 0.00 in0.0 mm 0.00 in0.0 mm
02:10 AM 31.1°F-0.5°C 27.4°F-2.6°C 86% Calm Calm -- 30.42 in1030.1 mb - 0.00 in0.0 mm 0.00 in0.0 mm
02:20 AM 31.0°F-0.6°C 27.0°F-2.8°C 85% Calm Calm -- 30.42 in1030.1 mb - 0.00 in0.0 mm 0.00 in0.0 mm
02:30 AM 30.7°F-0.7°C 26.7°F-2.9°C 85% Calm Calm -- 30.42 in1030.1 mb - 0.00 in0.0 mm 0.00 in0.0 mm
02:40 AM 30.3°F-0.9°C 26.4°F-3.1°C 85% Calm Calm -- 30.42 in1030.1 mb - 0.00 in0.0 mm 0.00 in0.0 mm
02:50 AM 30.1°F-1.1°C 26.4°F-3.1°C 86% Calm Calm -- 30.42 in1030.1 mb - 0.00 in0.0 mm 0.00 in0.0 mm
03:00 AM 30.0°F-1.1°C 26.4°F-3.1°C 86% Calm Calm -- 30.42 in1030.1 mb - 0.00 in0.0 mm 0.00 in0.0 mm
03:10 AM 29.9°F-1.2°C 26.2°F-3.2°C 86% Calm Calm -- 30.42 in1030.1 mb - 0.00 in0.0 mm 0.00 in0.0 mm
03:20 AM 29.7°F-1.3°C 26.0°F-3.3°C 86% Calm Calm -- 30.42 in1030.1 mb - 0.00 in0.0 mm 0.00 in0.0 mm
03:30 AM 29.6°F-1.3°C 26.2°F-3.2°C 87% Calm Calm -- 30.41 in1029.8 mb - 0.00 in0.0 mm 0.00 in0.0 mm
03:40 AM 29.7°F-1.3°C 26.3°F-3.2°C 87% Calm Calm -- 30.41 in1029.8 mb - 0.00 in0.0 mm 0.00 in0.0 mm
03:50 AM 29.6°F-1.3°C 26.2°F-3.2°C 87% Calm Calm -- 30.41 in1029.8 mb - 0.00 in0.0 mm 0.00 in0.0 mm
04:00 AM 29.4°F-1.4°C 26.0°F-3.3°C 87% Calm Calm -- 30.41 in1029.8 mb - 0.00 in0.0 mm 0.00 in0.0 mm
04:10 AM 29.1°F-1.6°C 25.7°F-3.5°C 87% Calm Calm -- 30.41 in1029.8 mb - 0.00 in0.0 mm 0.00 in0.0 mm
04:20 AM 29.2°F-1.6°C 26.1°F-3.3°C 88% Calm Calm -- 30.41 in1029.8 mb - 0.00 in0.0 mm 0.00 in0.0 mm
04:30 AM 29.2°F-1.6°C 26.1°F-3.3°C 88% Calm Calm -- 30.41 in1029.8 mb - 0.00 in0.0 mm 0.00 in0.0 mm
04:40 AM 28.9°F-1.7°C 25.8°F-3.4°C 88% Calm Calm -- 30.42 in1030.1 mb - 0.00 in0.0 mm 0.00 in0.0 mm
04:50 AM 28.7°F-1.8°C 25.6°F-3.6°C 88% Calm Calm -- 30.41 in1029.8 mb - 0.00 in0.0 mm 0.00 in0.0 mm
05:00 AM 28.4°F-2.0°C 25.3°F-3.7°C 88% Calm Calm -- 30.41 in1029.8 mb - 0.00 in0.0 mm 0.00 in0.0 mm
05:20 AM 28.1°F-2.2°C 25.0°F-3.9°C 88% Calm Calm -- 30.42 in1030.1 mb - 0.00 in0.0 mm 0.00 in0.0 mm
05:30 AM 27.6°F-2.4°C 24.5°F-4.2°C 88% Calm Calm -- 30.42 in1030.1 mb - 0.00 in0.0 mm 0.00 in0.0 mm
05:40 AM 27.5°F-2.5°C 24.7°F-4.1°C 89% Calm Calm -- 30.42 in1030.1 mb - 0.00 in0.0 mm 0.00 in0.0 mm
05:50 AM 27.4°F-2.6°C 24.5°F-4.2°C 89% Calm Calm -- 30.42 in1030.1 mb - 0.00 in0.0 mm 0.00 in0.0 mm
06:10 AM 27.2°F-2.7°C 24.7°F-4.1°C 90% Calm Calm -- 30.42 in1030.1 mb - 0.00 in0.0 mm 0.00 in0.0 mm
06:20 AM 27.2°F-2.7°C 24.7°F-4.1°C 90% Calm Calm -- 30.42 in1030.1 mb - 0.00 in0.0 mm 0.00 in0.0 mm
06:30 AM 27.2°F-2.7°C 24.7°F-4.1°C 90% Calm Calm -- 30.42 in1030.1 mb - 0.00 in0.0 mm 0.00 in0.0 mm
06:40 AM 27.1°F-2.7°C 24.6°F-4.1°C 90% Calm Calm -- 30.43 in1030.5 mb - 0.00 in0.0 mm 0.00 in0.0 mm
06:50 AM 27.0°F-2.8°C 24.5°F-4.2°C 90% Calm Calm -- 30.43 in1030.5 mb - 0.00 in0.0 mm 0.00 in0.0 mm
07:00 AM 28.1°F-2.2°C 25.8°F-3.4°C 91% Calm Calm -- 30.43 in1030.5 mb - 0.00 in0.0 mm 0.00 in0.0 mm
07:10 AM 29.8°F-1.2°C 27.5°F-2.5°C 91% Calm Calm -- 30.43 in1030.5 mb - 0.00 in0.0 mm 0.00 in0.0 mm
07:20 AM 31.5°F-0.3°C 28.4°F-2.0°C 88% Calm Calm -- 30.43 in1030.5 mb - 0.00 in0.0 mm 0.00 in0.0 mm
07:30 AM 33.1°F0.6°C 29.1°F-1.6°C 85% Calm Calm -- 30.44 in1030.8 mb - 0.00 in0.0 mm 0.00 in0.0 mm
07:40 AM 34.6°F1.4°C 29.7°F-1.3°C 82% 1.2 mph W1.9 kmh W 3.5 mph5.6 kmh 30.44 in1030.8 mb - 0.00 in0.0 mm 0.00 in0.0 mm
07:50 AM 36.0°F2.2°C 29.8°F-1.2°C 78% 1.2 mph W1.9 kmh W 2.3 mph3.7 kmh 30.45 in1031.2 mb - 0.00 in0.0 mm 0.00 in0.0 mm
08:00 AM 37.5°F3.1°C 30.3°F-0.9°C 75% 1.2 mph N1.9 kmh N 2.3 mph3.7 kmh 30.44 in1030.8 mb - 0.00 in0.0 mm 0.00 in0.0 mm
08:10 AM 38.6°F3.7°C 30.7°F-0.7°C 73% Calm Calm 1.2 mph1.9 kmh 30.45 in1031.2 mb - 0.00 in0.0 mm 0.00 in0.0 mm
08:20 AM 40.0°F4.4°C 31.0°F-0.6°C 70% 1.2 mph N1.9 kmh N 2.3 mph3.7 kmh 30.45 in1031.2 mb - 0.00 in0.0 mm 0.00 in0.0 mm
08:30 AM 41.1°F5.1°C 31.3°F-0.4°C 68% Calm Calm -- 30.46 in1031.5 mb - 0.00 in0.0 mm 0.00 in0.0 mm
08:40 AM 42.7°F5.9°C 31.7°F-0.2°C 65% 1.2 mph W1.9 kmh W 2.3 mph3.7 kmh 30.46 in1031.5 mb - 0.00 in0.0 mm 0.00 in0.0 mm
08:50 AM 44.0°F6.7°C 32.2°F0.1°C 63% Calm Calm -- 30.46 in1031.5 mb - 0.00 in0.0 mm 0.00 in0.0 mm
09:00 AM 45.8°F7.7°C 31.8°F-0.1°C 58% Calm Calm 1.2 mph1.9 kmh 30.46 in1031.5 mb - 0.00 in0.0 mm 0.00 in0.0 mm
09:10 AM 46.7°F8.2°C 32.7°F0.4°C 58% Calm Calm 1.2 mph1.9 kmh 30.46 in1031.5 mb - 0.00 in0.0 mm 0.00 in0.0 mm
09:20 AM 47.3°F8.5°C 31.1°F-0.5°C 53% 1.2 mph S1.9 kmh S 1.2 mph1.9 kmh 30.46 in1031.5 mb - 0.00 in0.0 mm 0.00 in0.0 mm
09:30 AM 48.8°F9.3°C 29.4°F-1.4°C 47% 1.2 mph ESE1.9 kmh ESE 2.3 mph3.7 kmh 30.46 in1031.5 mb - 0.00 in0.0 mm 0.00 in0.0 mm
09:40 AM 49.4°F9.7°C 30.0°F-1.1°C 47% Calm Calm 1.2 mph1.9 kmh 30.46 in1031.5 mb - 0.00 in0.0 mm 0.00 in0.0 mm
09:50 AM 50.1°F10.1°C 29.0°F-1.7°C 44% Calm Calm 1.2 mph1.9 kmh 30.46 in1031.5 mb - 0.00 in0.0 mm 0.00 in0.0 mm
10:00 AM 51.2°F10.7°C 28.9°F-1.7°C 42% 1.2 mph ENE1.9 kmh ENE 2.3 mph3.7 kmh 30.46 in1031.5 mb - 0.00 in0.0 mm 0.00 in0.0 mm
10:10 AM 51.8°F11.0°C 26.3°F-3.2°C 37% 1.2 mph SSW1.9 kmh SSW 1.2 mph1.9 kmh 30.46 in1031.5 mb - 0.00 in0.0 mm 0.00 in0.0 mm
10:20 AM 52.2°F11.2°C 27.4°F-2.6°C 38% 1.2 mph SSE1.9 kmh SSE 3.5 mph5.6 kmh 30.46 in1031.5 mb - 0.00 in0.0 mm 0.00 in0.0 mm
10:30 AM 53.1°F11.7°C 24.0°F-4.4°C 32% 1.2 mph ESE1.9 kmh ESE 2.3 mph3.7 kmh 30.46 in1031.5 mb - 0.00 in0.0 mm 0.00 in0.0 mm
10:40 AM 54.2°F12.3°C 23.4°F-4.8°C 30% 1.2 mph S1.9 kmh S 4.6 mph7.4 kmh 30.46 in1031.5 mb - 0.00 in0.0 mm 0.00 in0.0 mm
10:50 AM 55.1°F12.8°C 20.8°F-6.2°C 26% 1.2 mph SW1.9 kmh SW 2.3 mph3.7 kmh 30.46 in1031.5 mb - 0.00 in0.0 mm 0.00 in0.0 mm
11:00 AM 55.7°F13.2°C 21.3°F-5.9°C 26% 2.3 mph S3.7 kmh S 3.5 mph5.6 kmh 30.46 in1031.5 mb - 0.00 in0.0 mm 0.00 in0.0 mm
11:10 AM 56.0°F13.3°C 22.4°F-5.3°C 27% 1.2 mph SW1.9 kmh SW 3.5 mph5.6 kmh 30.46 in1031.5 mb - 0.00 in0.0 mm 0.00 in0.0 mm
11:20 AM 56.7°F13.7°C 23.0°F-5.0°C 27% 2.3 mph ESE3.7 kmh ESE 3.5 mph5.6 kmh 30.45 in1031.2 mb - 0.00 in0.0 mm 0.00 in0.0 mm
11:30 AM 56.8°F13.8°C 21.3°F-5.9°C 25% 4.6 mph SE7.4 kmh SE 6.9 mph11.1 kmh 30.45 in1031.2 mb - 0.00 in0.0 mm 0.00 in0.0 mm
11:40 AM 56.7°F13.7°C 19.3°F-7.1°C 23% 2.3 mph SW3.7 kmh SW 4.6 mph7.4 kmh 30.45 in1031.2 mb - 0.00 in0.0 mm 0.00 in0.0 mm
11:50 AM 57.3°F14.1°C 20.8°F-6.2°C 24% 4.6 mph SE7.4 kmh SE 6.9 mph11.1 kmh 30.44 in1030.8 mb - 0.00 in0.0 mm 0.00 in0.0 mm
12:00 PM 57.6°F14.2°C 20.0°F-6.7°C 23% 4.6 mph SSW7.4 kmh SSW 6.9 mph11.1 kmh 30.44 in1030.8 mb - 0.00 in0.0 mm 0.00 in0.0 mm
12:10 PM 57.4°F14.1°C 19.8°F-6.8°C 23% 1.2 mph SSE1.9 kmh SSE 3.5 mph5.6 kmh 30.44 in1030.8 mb - 0.00 in0.0 mm 0.00 in0.0 mm
12:20 PM 58.9°F14.9°C 22.1°F-5.5°C 24% 5.8 mph SE9.3 kmh SE 8.1 mph13.0 kmh 30.43 in1030.5 mb - 0.00 in0.0 mm 0.00 in0.0 mm
12:30 PM 59.1°F15.1°C 20.3°F-6.5°C 22% 4.6 mph SSW7.4 kmh SSW 6.9 mph11.1 kmh 30.43 in1030.5 mb - 0.00 in0.0 mm 0.00 in0.0 mm
12:40 PM 59.2°F15.1°C 22.4°F-5.3°C 24% 3.5 mph WSW5.6 kmh WSW 4.6 mph7.4 kmh 30.43 in1030.5 mb - 0.00 in0.0 mm 0.00 in0.0 mm
12:50 PM 58.5°F14.7°C 20.8°F-6.2°C 23% 3.5 mph NE5.6 kmh NE 3.5 mph5.6 kmh 30.43 in1030.5 mb - 0.00 in0.0 mm 0.00 in0.0 mm
01:00 PM 59.5°F15.3°C 21.6°F-5.8°C 23% 5.8 mph SW9.3 kmh SW 9.2 mph14.8 kmh 30.42 in1030.1 mb - 0.00 in0.0 mm 0.00 in0.0 mm
01:10 PM 59.7°F15.4°C 21.8°F-5.7°C 23% 3.5 mph SW5.6 kmh SW 5.8 mph9.3 kmh 30.42 in1030.1 mb - 0.00 in0.0 mm 0.00 in0.0 mm
01:20 PM 59.8°F15.4°C 20.8°F-6.2°C 22% 4.6 mph SSE7.4 kmh SSE 5.8 mph9.3 kmh 30.42 in1030.1 mb - 0.00 in0.0 mm 0.00 in0.0 mm
01:30 PM 59.7°F15.4°C 20.7°F-6.3°C 22% 4.6 mph S7.4 kmh S 8.1 mph13.0 kmh 30.41 in1029.8 mb - 0.00 in0.0 mm 0.00 in0.0 mm
01:40 PM 59.8°F15.4°C 20.8°F-6.2°C 22% 5.8 mph SW9.3 kmh SW 9.2 mph14.8 kmh 30.41 in1029.8 mb - 0.00 in0.0 mm 0.00 in0.0 mm
01:50 PM 59.8°F15.4°C 20.9°F-6.2°C 22% 5.8 mph SE9.3 kmh SE 8.1 mph13.0 kmh 30.41 in1029.8 mb - 0.00 in0.0 mm 0.00 in0.0 mm
02:00 PM 60.0°F15.6°C 21.0°F-6.1°C 22% 6.9 mph S11.1 kmh S 9.2 mph14.8 kmh 30.40 in1029.5 mb - 0.00 in0.0 mm 0.00 in0.0 mm
02:10 PM 59.8°F15.4°C 20.8°F-6.2°C 22% 6.9 mph SSE11.1 kmh SSE 8.1 mph13.0 kmh 30.40 in1029.5 mb - 0.00 in0.0 mm 0.00 in0.0 mm
02:20 PM 60.9°F16.1°C 23.8°F-4.6°C 24% 2.3 mph SE3.7 kmh SE 3.5 mph5.6 kmh 30.40 in1029.5 mb - 0.00 in0.0 mm 0.00 in0.0 mm
02:30 PM 60.9°F16.1°C 22.8°F-5.1°C 23% 6.9 mph SSE11.1 kmh SSE 10.4 mph16.7 kmh 30.39 in1029.1 mb - 0.00 in0.0 mm 0.00 in0.0 mm
02:40 PM 60.6°F15.9°C 22.6°F-5.2°C 23% 4.6 mph S7.4 kmh S 4.6 mph7.4 kmh 30.39 in1029.1 mb - 0.00 in0.0 mm 0.00 in0.0 mm
02:50 PM 61.1°F16.2°C 23.0°F-5.0°C 23% 6.9 mph S11.1 kmh S 10.4 mph16.7 kmh 30.39 in1029.1 mb - 0.00 in0.0 mm 0.00 in0.0 mm
03:00 PM 60.8°F16.0°C 21.7°F-5.7°C 22% 4.6 mph SE7.4 kmh SE 4.6 mph7.4 kmh 30.39 in1029.1 mb - 0.00 in0.0 mm 0.00 in0.0 mm
03:10 PM 61.1°F16.2°C 23.0°F-5.0°C 23% 2.3 mph S3.7 kmh S 6.9 mph11.1 kmh 30.39 in1029.1 mb - 0.00 in0.0 mm 0.00 in0.0 mm
03:20 PM 61.5°F16.4°C 23.3°F-4.8°C 23% 6.9 mph SE11.1 kmh SE 9.2 mph14.8 kmh 30.39 in1029.1 mb - 0.00 in0.0 mm 0.00 in0.0 mm
03:30 PM 60.9°F16.1°C 23.8°F-4.6°C 24% 3.5 mph SSW5.6 kmh SSW 6.9 mph11.1 kmh 30.38 in1028.8 mb - 0.00 in0.0 mm 0.00 in0.0 mm
03:40 PM 61.2°F16.2°C 23.1°F-4.9°C 23% 3.5 mph SSW5.6 kmh SSW 4.6 mph7.4 kmh 30.38 in1028.8 mb - 0.00 in0.0 mm 0.00 in0.0 mm
03:50 PM 61.4°F16.3°C 22.2°F-5.4°C 22% 4.6 mph SSE7.4 kmh SSE 6.9 mph11.1 kmh 30.37 in1028.4 mb - 0.00 in0.0 mm 0.00 in0.0 mm
04:00 PM 61.9°F16.6°C 22.6°F-5.2°C 22% 5.8 mph S9.3 kmh S 8.1 mph13.0 kmh 30.37 in1028.4 mb - 0.00 in0.0 mm 0.00 in0.0 mm
04:10 PM 61.7°F16.5°C 21.3°F-5.9°C 21% 4.6 mph SW7.4 kmh SW 6.9 mph11.1 kmh 30.37 in1028.4 mb - 0.00 in0.0 mm 0.00 in0.0 mm
04:20 PM 61.6°F16.4°C 22.4°F-5.3°C 22% 8.1 mph SE13.0 kmh SE 11.5 mph18.5 kmh 30.36 in1028.1 mb - 0.00 in0.0 mm 0.00 in0.0 mm
04:30 PM 61.5°F16.4°C 22.3°F-5.4°C 22% 6.9 mph SW11.1 kmh SW 11.5 mph18.5 kmh 30.36 in1028.1 mb - 0.00 in0.0 mm 0.00 in0.0 mm
04:40 PM 62.1°F16.7°C 22.8°F-5.1°C 22% 5.8 mph S9.3 kmh S 10.4 mph16.7 kmh 30.36 in1028.1 mb - 0.00 in0.0 mm 0.00 in0.0 mm
04:50 PM 62.4°F16.9°C 23.0°F-5.0°C 22% 4.6 mph S7.4 kmh S 9.2 mph14.8 kmh 30.36 in1028.1 mb - 0.00 in0.0 mm 0.00 in0.0 mm
05:00 PM 61.7°F16.5°C 23.4°F-4.8°C 23% 5.8 mph S9.3 kmh S 11.5 mph18.5 kmh 30.36 in1028.1 mb - 0.00 in0.0 mm 0.00 in0.0 mm
05:10 PM 62.0°F16.7°C 25.7°F-3.5°C 25% 4.6 mph SSW7.4 kmh SSW 6.9 mph11.1 kmh 30.36 in1028.1 mb - 0.00 in0.0 mm 0.00 in0.0 mm
05:20 PM 61.9°F16.6°C 24.6°F-4.1°C 24% 5.8 mph SSE9.3 kmh SSE 9.2 mph14.8 kmh 30.36 in1028.1 mb - 0.00 in0.0 mm 0.00 in0.0 mm
05:30 PM 62.2°F16.8°C 24.9°F-3.9°C 24% 4.6 mph SSW7.4 kmh SSW 6.9 mph11.1 kmh 30.36 in1028.1 mb - 0.00 in0.0 mm 0.00 in0.0 mm
05:40 PM 61.7°F16.5°C 24.5°F-4.2°C 24% 3.5 mph SSW5.6 kmh SSW 5.8 mph9.3 kmh 30.36 in1028.1 mb - 0.00 in0.0 mm 0.00 in0.0 mm
05:50 PM 61.7°F16.5°C 23.5°F-4.7°C 23% 5.8 mph SSW9.3 kmh SSW 6.9 mph11.1 kmh 30.35 in1027.8 mb - 0.00 in0.0 mm 0.00 in0.0 mm
06:00 PM 61.7°F16.5°C 22.4°F-5.3°C 22% 8.1 mph SW13.0 kmh SW 11.5 mph18.5 kmh 30.35 in1027.8 mb - 0.00 in0.0 mm 0.00 in0.0 mm
06:10 PM 61.0°F16.1°C 22.9°F-5.1°C 23% 5.8 mph SE9.3 kmh SE 11.5 mph18.5 kmh 30.36 in1028.1 mb - 0.00 in0.0 mm 0.00 in0.0 mm
06:20 PM 60.9°F16.1°C 22.8°F-5.1°C 23% 3.5 mph S5.6 kmh S 6.9 mph11.1 kmh 30.35 in1027.8 mb - 0.00 in0.0 mm 0.00 in0.0 mm
06:30 PM 60.9°F16.1°C 22.8°F-5.1°C 23% 4.6 mph S7.4 kmh S 4.6 mph7.4 kmh 30.35 in1027.8 mb - 0.00 in0.0 mm 0.00 in0.0 mm
06:40 PM 60.7°F15.9°C 21.6°F-5.8°C 22% 4.6 mph S7.4 kmh S 5.8 mph9.3 kmh 30.35 in1027.8 mb - 0.00 in0.0 mm 0.00 in0.0 mm
06:50 PM 60.4°F15.8°C 22.4°F-5.3°C 23% 2.3 mph SW3.7 kmh SW 4.6 mph7.4 kmh 30.35 in1027.8 mb - 0.00 in0.0 mm 0.00 in0.0 mm
07:00 PM 60.0°F15.6°C 21.0°F-6.1°C 22% 6.9 mph SE11.1 kmh SE 9.2 mph14.8 kmh 30.36 in1028.1 mb - 0.00 in0.0 mm 0.00 in0.0 mm
07:10 PM 59.9°F15.5°C 20.9°F-6.2°C 22% 5.8 mph S9.3 kmh S 8.1 mph13.0 kmh 30.36 in1028.1 mb - 0.00 in0.0 mm 0.00 in0.0 mm
07:20 PM 59.5°F15.3°C 20.6°F-6.3°C 22% 3.5 mph SSE5.6 kmh SSE 4.6 mph7.4 kmh 30.36 in1028.1 mb - 0.00 in0.0 mm 0.00 in0.0 mm
07:30 PM 59.0°F15.0°C 20.2°F-6.6°C 22% 4.6 mph S7.4 kmh S 5.8 mph9.3 kmh 30.35 in1027.8 mb - 0.00 in0.0 mm 0.00 in0.0 mm
07:40 PM 58.6°F14.8°C 20.9°F-6.2°C 23% 4.6 mph S7.4 kmh S 4.6 mph7.4 kmh 30.36 in1028.1 mb - 0.00 in0.0 mm 0.00 in0.0 mm
07:50 PM 57.9°F14.4°C 21.3°F-5.9°C 24% 3.5 mph S5.6 kmh S 5.8 mph9.3 kmh 30.36 in1028.1 mb - 0.00 in0.0 mm 0.00 in0.0 mm
08:00 PM 57.3°F14.1°C 20.8°F-6.2°C 24% 3.5 mph S5.6 kmh S 6.9 mph11.1 kmh 30.36 in1028.1 mb - 0.00 in0.0 mm 0.00 in0.0 mm
08:10 PM 56.8°F13.8°C 21.3°F-5.9°C 25% 3.5 mph S5.6 kmh S 5.8 mph9.3 kmh 30.36 in1028.1 mb - 0.00 in0.0 mm 0.00 in0.0 mm
08:20 PM 56.2°F13.4°C 20.8°F-6.2°C 25% 3.5 mph N5.6 kmh N 3.5 mph5.6 kmh 30.37 in1028.4 mb - 0.00 in0.0 mm 0.00 in0.0 mm
08:30 PM 55.6°F13.1°C 21.2°F-6.0°C 26% 3.5 mph N5.6 kmh N 3.5 mph5.6 kmh 30.37 in1028.4 mb - 0.00 in0.0 mm 0.00 in0.0 mm
08:40 PM 55.2°F12.9°C 20.8°F-6.2°C 26% 2.3 mph S3.7 kmh S 3.5 mph5.6 kmh 30.38 in1028.8 mb - 0.00 in0.0 mm 0.00 in0.0 mm
08:50 PM 54.7°F12.6°C 21.3°F-5.9°C 27% 2.3 mph S3.7 kmh S 3.5 mph5.6 kmh 30.38 in1028.8 mb - 0.00 in0.0 mm 0.00 in0.0 mm
09:00 PM 54.2°F12.3°C 21.8°F-5.7°C 28% 1.2 mph S1.9 kmh S 3.5 mph5.6 kmh 30.38 in1028.8 mb - 0.00 in0.0 mm 0.00 in0.0 mm
09:10 PM 53.7°F12.1°C 21.3°F-5.9°C 28% 2.3 mph S3.7 kmh S 3.5 mph5.6 kmh 30.38 in1028.8 mb - 0.00 in0.0 mm 0.00 in0.0 mm
09:20 PM 53.1°F11.7°C 21.7°F-5.7°C 29% 2.3 mph S3.7 kmh S 3.5 mph5.6 kmh 30.38 in1028.8 mb - 0.00 in0.0 mm 0.00 in0.0 mm
09:30 PM 52.6°F11.4°C 22.0°F-5.6°C 30% 2.3 mph SSW3.7 kmh SSW 3.5 mph5.6 kmh 30.38 in1028.8 mb - 0.00 in0.0 mm 0.00 in0.0 mm
09:40 PM 52.3°F11.3°C 21.7°F-5.7°C 30% 1.2 mph SSW1.9 kmh SSW 2.3 mph3.7 kmh 30.38 in1028.8 mb - 0.00 in0.0 mm 0.00 in0.0 mm
09:50 PM 51.9°F11.1°C 22.2°F-5.4°C 31% 1.2 mph SW1.9 kmh SW 2.3 mph3.7 kmh 30.39 in1029.1 mb - 0.00 in0.0 mm 0.00 in0.0 mm
10:00 PM 51.6°F10.9°C 21.9°F-5.6°C 31% 1.2 mph SSW1.9 kmh SSW 3.5 mph5.6 kmh 30.39 in1029.1 mb - 0.00 in0.0 mm 0.00 in0.0 mm
10:10 PM 51.2°F10.7°C 22.3°F-5.4°C 32% 1.2 mph SSW1.9 kmh SSW 2.3 mph3.7 kmh 30.39 in1029.1 mb - 0.00 in0.0 mm 0.00 in0.0 mm
10:20 PM 50.6°F10.3°C 22.5°F-5.3°C 33% Calm Calm 1.2 mph1.9 kmh 30.38 in1028.8 mb - 0.00 in0.0 mm 0.00 in0.0 mm
10:30 PM 49.7°F9.8°C 21.8°F-5.7°C 33% Calm Calm 1.2 mph1.9 kmh 30.38 in1028.8 mb - 0.00 in0.0 mm 0.00 in0.0 mm
10:40 PM 49.1°F9.5°C 22.6°F-5.2°C 35% 1.2 mph SSW1.9 kmh SSW 1.2 mph1.9 kmh 30.38 in1028.8 mb - 0.00 in0.0 mm 0.00 in0.0 mm
10:50 PM 48.9°F9.4°C 22.4°F-5.3°C 35% 1.2 mph SSW1.9 kmh SSW 2.3 mph3.7 kmh 30.38 in1028.8 mb - 0.00 in0.0 mm 0.00 in0.0 mm
11:00 PM 48.4°F9.1°C 22.7°F-5.2°C 36% 1.2 mph SSW1.9 kmh SSW 3.5 mph5.6 kmh 30.38 in1028.8 mb - 0.00 in0.0 mm 0.00 in0.0 mm
11:10 PM 47.8°F8.8°C 23.4°F-4.8°C 38% Calm Calm -- 30.38 in1028.8 mb - 0.00 in0.0 mm 0.00 in0.0 mm
11:20 PM 46.9°F8.3°C 23.2°F-4.9°C 39% 1.2 mph SSW1.9 kmh SSW 2.3 mph3.7 kmh 30.38 in1028.8 mb - 0.00 in0.0 mm 0.00 in0.0 mm
11:30 PM 46.7°F8.2°C 23.0°F-5.0°C 39% 1.2 mph SW1.9 kmh SW 3.5 mph5.6 kmh 30.37 in1028.4 mb - 0.00 in0.0 mm 0.00 in0.0 mm
11:40 PM 46.4°F8.0°C 22.7°F-5.2°C 39% Calm Calm 2.3 mph3.7 kmh 30.37 in1028.4 mb - 0.00 in0.0 mm 0.00 in0.0 mm
11:50 PM 45.5°F7.5°C 23.2°F-4.9°C 41% Calm Calm 1.2 mph1.9 kmh 30.37 in1028.4 mb - 0.00 in0.0 mm 0.00 in0.0 mm